Time;durP1;ratioP1;P1;durP2;ratioP2;P2;SDS_P1;SDS_P2;PMS_P1;PMS_P2;Temp;Humidity;BMP_temperature;BMP_pressure;BME280_temperature;BME280_humidity;BME280_pressure;Samples;Min_cycle;Max_cycle;Signal;HPM_P1;HPM_P2
2022/11/12 00:01:07;;;;;;;31.55;17.65;;;;;;;9.89;65.54;101332.41;7791625;32;37837;-90
2022/11/12 00:05:24;;;;;;;33.63;17.05;;;;;;;10.08;64.81;101335.09;7791831;32;38920;-91
2022/11/12 00:09:43;;;;;;;31.75;17.67;;;;;;;10.01;65.21;101318.84;7791933;32;39721;-91
2022/11/12 00:13:59;;;;;;;29.90;16.87;;;;;;;9.93;65.36;101319.16;7791845;32;38481;-91
2022/11/12 00:18:15;;;;;;;27.48;16.27;;;;;;;9.95;65.32;101309.69;7791342;32;37721;-87
2022/11/12 00:22:32;;;;;;;31.85;17.90;;;;;;;9.76;65.80;101308.91;7777109;32;39380;-91
2022/11/12 00:26:48;;;;;;;27.75;17.42;;;;;;;9.68;66.16;101311.94;7790957;32;40965;-91
2022/11/12 00:31:09;;;;;;;31.27;16.75;;;;;;;9.90;65.80;101305.97;7790707;32;38093;-91
2022/11/12 00:35:25;;;;;;;28.33;17.70;;;;;;;9.96;65.44;101303.16;7791057;32;37461;-91
2022/11/12 00:39:42;;;;;;;33.00;17.67;;;;;;;9.70;66.29;101293.47;7790805;32;39324;-89
2022/11/12 00:43:58;;;;;;;28.55;17.37;;;;;;;9.62;66.56;101296.50;7790710;32;39952;-89
2022/11/12 00:48:14;;;;;;;30.52;17.77;;;;;;;9.81;65.87;101291.03;7790202;32;37890;-90
2022/11/12 00:52:30;;;;;;;33.22;18.00;;;;;;;9.79;65.99;101291.25;7790189;32;37991;-90
2022/11/12 00:56:47;;;;;;;28.25;17.15;;;;;;;9.91;65.19;101299.47;7790156;32;39398;-89
2022/11/12 01:01:08;;;;;;;29.58;17.20;;;;;;;9.39;67.02;101294.47;7790215;32;39671;-91
2022/11/12 01:05:25;;;;;;;29.63;17.87;;;;;;;9.68;66.07;101303.75;7790066;32;38721;-90
2022/11/12 01:09:41;;;;;;;29.00;16.40;;;;;;;9.41;66.75;101303.25;7789846;32;37284;-91
2022/11/12 01:14:03;;;;;;;28.92;17.87;;;;;;;9.66;65.85;101303.16;7775857;32;39089;-90
2022/11/12 01:18:19;;;;;;;27.48;16.62;;;;;;;9.49;66.34;101283.06;7775601;32;40074;-91
2022/11/12 01:22:36;;;;;;;29.92;15.75;;;;;;;9.45;66.20;101281.84;7789390;32;37962;-90
2022/11/12 01:26:52;;;;;;;26.20;16.00;;;;;;;9.71;65.33;101275.22;7789566;32;37351;-90
2022/11/12 01:31:17;;;;;;;32.55;17.58;;;;;;;9.51;65.66;101283.66;7789564;32;40008;-88
2022/11/12 01:35:33;;;;;;;30.37;16.25;;;;;;;9.35;66.01;101271.50;7775573;32;39563;-90
2022/11/12 01:39:49;;;;;;;25.17;15.07;;;;;;;9.87;64.39;101265.59;7789244;32;37642;-90
2022/11/12 01:44:15;;;;;;;31.42;15.27;;;;;;;9.76;64.77;101262.59;7778293;32;37941;-90
2022/11/12 01:48:45;;;;;;;32.50;17.73;;;;;;;9.31;66.13;101268.41;7755288;32;39472;-90
2022/11/12 01:53:05;;;;;;;30.17;17.58;;;;;;;9.32;66.59;101270.06;7739136;32;40029;-90
2022/11/12 01:57:28;;;;;;;30.77;16.92;;;;;;;9.10;67.73;101255.25;7737669;32;36342;-85
2022/11/12 02:01:49;;;;;;;29.23;17.65;;;;;;;9.42;66.79;101260.50;7711296;32;37122;-91
2022/11/12 02:06:10;;;;;;;29.08;18.00;;;;;;;9.45;66.83;101260.06;7712961;32;39372;-90
2022/11/12 02:10:26;;;;;;;32.42;17.92;;;;;;;9.30;67.43;101260.47;7711165;32;40083;-90
2022/11/12 02:14:42;;;;;;;26.90;16.42;;;;;;;9.17;67.92;101256.00;7712281;32;38005;-91
2022/11/12 02:18:59;;;;;;;29.55;17.45;;;;;;;9.31;67.51;101264.84;7724999;32;38002;-89
2022/11/12 02:23:15;;;;;;;32.75;17.73;;;;;;;9.21;67.74;101257.22;7738440;32;39304;-91
2022/11/12 02:27:32;;;;;;;25.40;16.12;;;;;;;9.43;66.83;101260.28;7738729;32;40782;-92
2022/11/12 02:31:48;;;;;;;26.95;15.90;;;;;;;9.21;66.81;101263.47;7737458;32;38686;-90
2022/11/12 02:36:04;;;;;;;28.67;16.67;;;;;;;9.44;65.64;101256.50;7738464;32;37929;-90
2022/11/12 02:40:21;;;;;;;27.85;16.45;;;;;;;9.23;65.89;101255.09;7738528;32;39432;-90
2022/11/12 02:44:37;;;;;;;28.25;16.15;;;;;;;9.39;64.99;101259.09;7737333;32;39886;-91
2022/11/12 02:48:53;;;;;;;29.37;16.95;;;;;;;9.54;64.48;101264.16;7791722;32;37713;-90
2022/11/12 02:53:09;;;;;;;27.23;15.52;;;;;;;9.55;64.73;101263.06;7792293;32;37784;-90
2022/11/12 02:57:26;;;;;;;29.50;16.33;;;;;;;9.48;64.58;101267.78;7792257;32;39135;-90
2022/11/12 03:01:42;;;;;;;28.75;15.50;;;;;;;9.63;64.01;101268.22;7792376;32;39867;-91
2022/11/12 03:06:00;;;;;;;24.98;15.15;;;;;;;9.31;64.80;101279.28;7792276;32;38691;-89
2022/11/12 03:10:16;;;;;;;24.70;15.32;;;;;;;9.04;65.43;101281.47;7792379;32;37157;-88
2022/11/12 03:14:32;;;;;;;24.87;15.13;;;;;;;8.90;65.51;101277.19;7792268;32;40078;-89
2022/11/12 03:18:49;;;;;;;26.17;15.25;;;;;;;9.08;65.30;101268.25;7777941;32;40819;-89
2022/11/12 03:23:07;;;;;;;28.27;17.35;;;;;;;9.07;65.41;101269.28;7791777;32;38641;-90
2022/11/12 03:27:24;;;;;;;28.42;16.87;;;;;;;9.08;65.23;101260.06;7778355;32;37747;-91
2022/11/12 03:31:41;;;;;;;30.10;17.40;;;;;;;8.96;65.88;101255.38;7792114;32;39248;-90
2022/11/12 03:35:57;;;;;;;28.55;16.62;;;;;;;9.21;65.34;101263.47;7778039;32;39549;-91
2022/11/12 03:40:13;;;;;;;26.80;16.20;;;;;;;9.41;64.60;101273.28;7791936;32;38559;-90
2022/11/12 03:44:30;;;;;;;29.60;16.10;;;;;;;8.88;65.41;101268.44;7791873;32;38082;-90
2022/11/12 03:48:46;;;;;;;23.27;15.25;;;;;;;9.13;64.26;101271.13;7791406;32;39337;-90
2022/11/12 03:53:02;;;;;;;22.10;15.05;;;;;;;8.82;64.63;101275.59;7791257;32;40856;-90
2022/11/12 03:57:19;;;;;;;21.77;14.68;;;;;;;8.54;65.27;101278.81;7777407;32;38212;-89
2022/11/12 04:01:35;;;;;;;22.77;14.45;;;;;;;8.38;65.60;101277.41;7791588;32;37156;-89
2022/11/12 04:10:28;;;;;;;26.35;14.85;;;;;;;8.89;62.99;101284.53;7791512;32;39960;-90
2022/11/12 04:14:44;;;;;;;25.85;15.57;;;;;;;8.64;63.55;101279.94;7791289;32;37844;-89
2022/11/12 04:23:38;;;;;;;28.08;17.73;;;;;;;8.01;66.07;101280.78;7791354;32;39331;-90
2022/11/12 04:27:54;;;;;;;27.23;16.95;;;;;;;8.01;66.67;101269.94;7791071;32;39388;-90
2022/11/12 04:32:11;;;;;;;28.02;17.75;;;;;;;7.80;66.96;101273.81;7791072;32;38007;-90
2022/11/12 04:36:27;;;;;;;42.10;15.75;;;;;;;7.76;67.33;101283.47;7777191;32;37551;-90
2022/11/12 04:45:18;;;;;;;29.12;16.70;;;;;;;7.73;67.91;101286.59;7790567;32;40102;-90
2022/11/12 04:49:34;;;;;;;27.98;17.42;;;;;;;7.98;67.25;101278.50;7790511;32;37990;-89
2022/11/12 04:53:50;;;;;;;27.73;16.37;;;;;;;8.08;67.05;101272.59;7790256;32;38274;-89
2022/11/12 04:58:07;;;;;;;29.10;17.20;;;;;;;7.86;67.99;101269.38;7790239;32;40166;-88
2022/11/12 05:02:23;;;;;;;27.85;16.12;;;;;;;8.32;66.55;101264.72;7789141;32;41010;-91
2022/11/12 05:06:51;;;;;;;41.70;17.85;;;;;;;8.03;67.71;101280.56;7790046;32;38113;-90
2022/11/12 05:11:08;;;;;;;28.62;16.15;;;;;;;8.36;66.84;101287.66;7790093;32;38023;-91
2022/11/12 05:15:27;;;;;;;32.10;16.00;;;;;;;8.63;65.51;101288.31;7790658;32;39711;-91
2022/11/12 05:19:44;;;;;;;43.85;15.68;;;;;;;8.34;66.17;101276.19;7793648;32;39957;-91
2022/11/12 05:24:00;;;;;;;34.30;16.30;;;;;;;8.45;66.00;101272.78;7779756;32;37999;-91
2022/11/12 05:28:16;;;;;;;62.67;14.93;;;;;;;8.04;67.74;101279.53;7794168;32;37917;-88
2022/11/12 05:32:32;;;;;;;68.30;17.20;;;;;;;8.27;66.90;101282.50;7793302;32;39545;-89
2022/11/12 05:36:48;;;;;;;70.72;15.82;;;;;;;7.75;68.84;101278.25;7792126;32;40084;-87
2022/11/12 05:41:05;;;;;;;50.33;17.40;;;;;;;8.22;67.46;101286.94;7793279;32;37855;-89
2022/11/12 05:45:21;;;;;;;37.22;15.68;;;;;;;7.99;68.11;101288.34;7794198;32;37159;-90
2022/11/12 05:49:37;;;;;;;79.68;16.92;;;;;;;8.22;67.36;101298.63;7798386;32;39186;-92
2022/11/12 05:53:53;;;;;;;45.08;14.73;;;;;;;7.90;67.91;101293.19;7801434;32;39818;-92
2022/11/12 05:58:10;;;;;;;152.00;19.20;;;;;;;8.08;67.35;101297.87;7798214;32;39147;-93
2022/11/12 06:02:26;;;;;;;27.77;13.85;;;;;;;7.65;67.71;101303.12;7793922;32;37462;-86
2022/11/12 06:06:43;;;;;;;20.33;13.95;;;;;;;7.57;67.59;101300.66;7793351;32;39400;-89
2022/11/12 06:10:59;;;;;;;22.92;15.18;;;;;;;7.60;67.30;101309.19;7779538;32;39671;-90
2022/11/12 06:15:15;;;;;;;30.55;15.13;;;;;;;7.52;68.29;101318.41;7793969;32;37856;-91
2022/11/12 06:19:32;;;;;;;38.90;16.20;;;;;;;7.82;67.26;101323.31;7793572;32;38195;-90
2022/11/12 06:23:54;;;;;;;198.02;21.62;;;;;;;8.16;66.38;101321.25;7793415;32;39508;-90
2022/11/12 06:28:10;;;;;;;91.85;17.83;;;;;;;8.25;66.65;101324.53;7792404;32;40290;-90
2022/11/12 06:32:26;;;;;;;377.17;27.58;;;;;;;8.34;66.97;101325.94;7793095;32;37949;-91
2022/11/12 06:36:42;;;;;;;96.32;17.70;;;;;;;8.17;67.78;101328.34;7792852;32;37996;-90
2022/11/12 06:40:58;;;;;;;120.50;18.45;;;;;;;8.38;67.36;101338.03;7792847;32;39248;-90
2022/11/12 06:45:15;;;;;;;232.62;21.65;;;;;;;8.56;67.06;101341.94;7778782;32;39939;-90
2022/11/12 06:49:31;;;;;;;169.48;21.92;;;;;;;8.57;67.17;101351.72;7792694;32;38922;-91
2022/11/12 06:53:48;;;;;;;109.93;19.23;;;;;;;7.99;69.86;101352.69;7792662;32;37324;-90
2022/11/12 06:58:04;;;;;;;135.68;19.67;;;;;;;8.08;70.13;101364.97;7779250;32;39963;-93
2022/11/12 07:02:20;;;;;;;119.43;19.33;;;;;;;8.06;70.75;101364.34;7792510;32;39891;-91
2022/11/12 07:06:37;;;;;;;117.18;20.67;;;;;;;8.35;70.15;101368.38;7792314;32;38042;-86
2022/11/12 07:10:56;;;;;;;24.60;15.02;;;;;;;8.57;70.04;101355.31;7792473;32;36964;-81
2022/11/12 07:15:13;;;;;;;29.25;15.40;;;;;;;8.95;74.51;101357.09;7792281;32;40225;-83
2022/11/12 07:19:29;;;;;;;21.33;13.88;;;;;;;9.65;71.42;101366.84;7778337;32;40675;-88
2022/11/12 07:23:46;;;;;;;21.10;13.75;;;;;;;9.93;67.91;101366.31;7792244;32;37983;-87
2022/11/12 07:28:02;;;;;;;21.40;13.27;;;;;;;10.12;65.92;101352.63;7792196;32;37916;-88
2022/11/12 07:32:18;;;;;;;20.70;13.55;;;;;;;10.34;63.61;101353.81;7792197;32;39342;-91
2022/11/12 07:36:35;;;;;;;22.48;13.32;;;;;;;10.03;64.33;101363.03;7791914;32;39970;-87
2022/11/12 07:40:51;;;;;;;20.73;13.52;;;;;;;10.03;64.54;101367.66;7790586;32;38797;-86
2022/11/12 07:45:07;;;;;;;21.25;13.68;;;;;;;10.25;64.52;101365.25;7791756;32;37451;-87
2022/11/12 07:49:23;;;;;;;25.98;15.93;;;;;;;10.42;65.62;101360.84;7792141;32;39822;-90
2022/11/12 07:53:40;;;;;;;25.65;15.23;;;;;;;10.66;66.19;101360.91;7792100;32;40016;-86
2022/11/12 07:57:59;;;;;;;36.60;21.05;;;;;;;10.82;67.05;101365.66;7792184;32;38700;-91
2022/11/12 08:02:15;;;;;;;319.05;28.23;;;;;;;10.90;65.33;101357.16;7794762;32;36308;-93
2022/11/12 08:06:32;;;;;;;97.82;19.40;;;;;;;10.04;66.00;101372.06;7793148;32;39635;-92
2022/11/12 08:10:52;;;;;;;35.15;17.98;;;;;;;9.89;66.79;101367.00;7791263;32;40734;-91
2022/11/12 08:15:08;;;;;;;27.80;17.20;;;;;;;10.23;66.20;101367.41;7791139;32;37901;-90
2022/11/12 08:19:25;;;;;;;316.92;26.23;;;;;;;10.78;66.02;101367.22;7791160;32;37321;-92
2022/11/12 08:23:41;;;;;;;32.78;17.95;;;;;;;9.52;69.55;101372.44;7792131;32;40011;-93
2022/11/12 08:27:58;;;;;;;31.90;17.65;;;;;;;9.87;69.18;101380.00;7793897;32;39543;-93
2022/11/12 08:32:15;;;;;;;32.75;19.00;;;;;;;10.12;69.07;101380.75;7779535;32;38742;-91
2022/11/12 08:36:32;;;;;;;33.70;18.65;;;;;;;9.80;71.30;101380.09;7791296;32;36981;-92
2022/11/12 08:40:49;;;;;;;30.73;18.10;;;;;;;10.82;68.54;101376.59;7792096;32;39402;-91
2022/11/12 08:45:05;;;;;;;29.67;16.55;;;;;;;11.35;67.34;101369.37;7790748;32;39670;-92
2022/11/12 08:49:22;;;;;;;29.08;15.95;;;;;;;11.68;66.03;101378.84;7776165;32;38906;-92
2022/11/12 08:53:38;;;;;;;29.90;16.85;;;;;;;12.09;65.54;101374.25;7794496;32;37287;-90
2022/11/12 08:57:54;;;;;;;28.30;15.93;;;;;;;12.35;65.68;101378.31;7794058;32;39245;-89
2022/11/12 09:02:13;;;;;;;30.92;15.43;;;;;;;12.83;63.68;101373.41;7793957;32;39919;-90
2022/11/12 09:06:29;;;;;;;26.67;14.27;;;;;;;13.21;60.96;101384.66;7793971;32;37623;-91
2022/11/12 09:10:46;;;;;;;23.85;13.73;;;;;;;13.26;59.97;101377.38;7794006;32;37226;-91
2022/11/12 09:15:03;;;;;;;22.75;13.80;;;;;;;13.40;59.72;101388.84;7780013;32;39283;-92
2022/11/12 09:19:39;;;;;;;28.85;14.02;;;;;;;13.47;59.30;101386.75;7793511;32;40290;-89
2022/11/12 09:23:58;;;;;;;26.37;15.07;;;;;;;13.77;58.58;101399.19;7794356;32;38783;-93
2022/11/12 09:28:16;;;;;;;26.62;13.82;;;;;;;14.18;58.15;101391.47;7794177;32;37989;-88
2022/11/12 09:32:32;;;;;;;25.23;13.75;;;;;;;14.42;57.85;101397.50;7794397;32;39155;-89
2022/11/12 09:36:48;;;;;;;22.08;12.37;;;;;;;15.10;55.17;101397.03;7793750;32;40859;-87
2022/11/12 09:41:28;;;;;;;25.33;12.90;;;;;;;15.33;54.14;101395.84;7792981;32;38800;-88
2022/11/12 09:45:46;;;;;;;25.00;13.43;;;;;;;15.53;53.33;101386.88;7780792;32;37950;-92
2022/11/12 09:50:28;;;;;;;21.48;12.60;;;;;;;16.08;52.51;101390.19;7780606;32;39922;-91
2022/11/12 09:54:49;;;;;;;19.40;11.70;;;;;;;16.59;50.92;101385.91;7778838;32;40814;-92
2022/11/12 09:59:12;;;;;;;21.23;11.75;;;;;;;16.94;50.10;101376.06;7778806;32;37947;-92
2022/11/12 10:03:32;;;;;;;20.73;11.35;;;;;;;16.96;49.90;101384.88;7792425;32;37189;-91
2022/11/12 10:08:10;;;;;;;20.95;11.38;;;;;;;17.12;49.67;101377.41;7793301;32;40126;-91
2022/11/12 10:12:41;;;;;;;19.50;10.50;;;;;;;17.54;47.87;101379.81;7793236;32;40713;-92
2022/11/12 10:17:01;;;;;;;20.83;10.18;;;;;;;17.45;47.17;101385.09;7793102;32;38016;-92
2022/11/12 10:21:29;;;;;;;21.55;11.18;;;;;;;17.00;47.79;101374.94;7779512;32;37901;-91
2022/11/12 10:25:47;;;;;;;20.00;10.18;;;;;;;16.58;48.86;101389.78;7793235;32;39069;-91
2022/11/12 10:30:06;;;;;;;20.20;11.23;;;;;;;16.44;49.90;101389.47;7784820;32;39483;-90
2022/11/12 10:34:24;;;;;;;21.73;11.63;;;;;;;16.77;48.84;101392.81;7795929;32;38235;-91
2022/11/12 10:38:42;;;;;;;23.17;12.65;;;;;;;15.99;50.74;101394.56;7796860;32;38364;-93
2022/11/12 10:43:14;;;;;;;23.52;12.27;;;;;;;15.88;51.46;101393.69;7781466;32;39099;-92
2022/11/12 10:47:41;;;;;;;21.17;11.20;;;;;;;16.51;50.56;101390.84;7793516;32;39810;-93
2022/11/12 10:51:58;;;;;;;22.25;11.32;;;;;;;16.48;50.13;101385.87;7780840;32;38140;-92
2022/11/12 10:56:28;;;;;;;20.08;11.65;;;;;;;16.50;50.20;101389.19;7780926;32;37179;-92
2022/11/12 11:01:06;;;;;;;20.35;11.88;;;;;;;16.80;49.68;101379.31;7794109;32;39425;-92
2022/11/12 11:05:33;;;;;;;21.87;11.32;;;;;;;16.56;49.82;101376.28;7781064;32;40012;-92
2022/11/12 11:09:58;;;;;;;23.30;11.70;;;;;;;16.71;49.94;101372.69;7794597;32;38773;-92
2022/11/12 11:14:25;;;;;;;21.15;11.38;;;;;;;16.71;50.25;101372.69;7780858;32;37101;-91
2022/11/12 11:18:45;;;;;;;20.15;10.98;;;;;;;17.40;48.60;101375.97;7795684;32;39197;-91
2022/11/12 11:23:22;;;;;;;18.33;10.50;;;;;;;17.75;47.72;101365.97;7788159;32;297893;-91
2022/11/12 11:27:57;;;;;;;19.77;10.50;;;;;;;17.76;47.88;101359.31;7796929;32;38167;-92
2022/11/12 11:32:32;;;;;;;17.85;10.40;;;;;;;18.09;46.56;101362.50;7782680;32;36853;-91
2022/11/12 11:37:01;;;;;;;19.90;10.85;;;;;;;18.12;46.33;101367.47;7798222;32;39443;-91
2022/11/12 11:41:49;;;;;;;20.25;11.70;;;;;;;18.07;46.01;101373.00;7798977;32;39537;-91
2022/11/12 11:46:27;;;;;;;19.02;11.45;;;;;;;17.68;47.33;101374.53;7741779;32;39119;-93
2022/11/12 11:50:58;;;;;;;19.90;11.68;;;;;;;18.29;45.80;101364.34;7784697;32;37157;-91
2022/11/12 11:55:31;;;;;;;23.17;11.90;;;;;;;18.33;45.88;101369.03;7784014;32;39639;-91
2022/11/12 12:00:16;;;;;;;21.40;11.65;;;;;;;17.99;46.30;101357.88;7791325;32;39981;-91
2022/11/12 12:04:47;;;;;;;27.67;11.15;;;;;;;18.10;46.28;101353.94;7792165;32;38112;-92
2022/11/12 12:09:15;;;;;;;20.23;11.65;;;;;;;18.26;45.65;101348.34;7791465;32;37036;-91
2022/11/12 12:13:48;;;;;;;20.23;12.00;;;;;;;18.17;46.07;101348.13;7791475;32;39985;-89
2022/11/12 12:18:26;;;;;;;22.48;11.98;;;;;;;17.80;46.69;101344.69;7793459;32;40896;-92
2022/11/12 12:22:56;;;;;;;19.67;11.68;;;;;;;18.02;46.38;101346.25;7793522;32;37717;-91
2022/11/12 12:27:14;;;;;;;21.80;12.00;;;;;;;17.99;46.38;101342.16;7777729;32;37083;-91
2022/11/12 12:31:40;;;;;;;21.48;10.90;;;;;;;18.08;46.17;101333.28;7791161;32;40078;-90
2022/11/12 12:36:04;;;;;;;19.50;10.88;;;;;;;17.67;47.47;101331.50;7777583;32;40846;-91
2022/11/12 12:40:24;;;;;;;19.25;11.23;;;;;;;17.92;46.90;101318.72;7777685;32;37938;-92
2022/11/12 12:45:06;;;;;;;20.23;10.95;;;;;;;17.62;47.66;101326.00;7777322;32;37887;-90
2022/11/12 12:49:31;;;;;;;17.83;11.15;;;;;;;18.15;46.32;101322.75;7779157;32;40083;-90
2022/11/12 12:53:47;;;;;;;21.87;10.93;;;;;;;17.50;48.07;101329.06;7777218;32;39649;-90
2022/11/12 12:58:03;;;;;;;18.02;9.93;;;;;;;17.75;46.92;101324.59;7790214;32;37999;-90
2022/11/12 13:02:24;;;;;;;22.80;10.13;;;;;;;17.64;47.16;101321.87;7790676;32;37221;-90
2022/11/12 13:06:58;;;;;;;18.98;9.68;;;;;;;17.65;46.41;101315.25;7776435;32;39296;-91
2022/11/12 13:12:25;;;;;;;18.62;10.05;;;;;;;17.66;47.62;101310.56;7790363;32;39990;-90
2022/11/12 13:16:48;;;;;;;16.65;9.15;;;;;;;17.57;47.24;101313.06;7777048;32;37628;-93
2022/11/12 13:21:09;;;;;;;14.25;8.93;;;;;;;17.93;46.60;101312.94;7789721;32;38021;-93
2022/11/12 13:25:28;;;;;;;16.65;9.70;;;;;;;17.59;46.98;101310.88;7790520;32;39027;-96
2022/11/12 13:29:46;;;;;;;18.52;10.27;;;;;;;17.43;47.30;101309.25;7790611;32;40158;-95
2022/11/12 13:34:24;;;;;;;18.02;10.05;;;;;;;17.42;47.38;101316.72;7778638;32;37858;-94
2022/11/12 13:38:40;;;;;;;19.90;10.88;;;;;;;16.98;49.05;101322.06;7794537;32;37485;-94
2022/11/12 13:43:03;;;;;;;20.27;11.02;;;;;;;16.83;49.17;101320.94;7780257;32;40068;-93
2022/11/12 13:47:23;;;;;;;20.55;10.23;;;;;;;16.92;49.48;101320.38;7764909;32;40610;-94
2022/11/12 13:51:45;;;;;;;20.62;11.57;;;;;;;16.82;49.77;101315.72;7765434;32;37637;-94
2022/11/12 13:56:01;;;;;;;20.65;11.18;;;;;;;17.03;49.20;101327.56;7765412;32;37843;-93
2022/11/12 14:00:19;;;;;;;19.60;11.18;;;;;;;16.60;50.36;101327.00;7766227;32;39148;-92
2022/11/12 14:04:35;;;;;;;21.90;10.55;;;;;;;16.59;50.27;101319.81;7766309;32;39642;-93
2022/11/12 14:09:27;;;;;;;25.45;10.68;;;;;;;16.69;50.31;101317.06;7765137;32;38599;-94
2022/11/12 14:14:13;;;;;;;29.87;15.68;;;;;;;16.51;50.20;101324.78;7726272;32;37170;-93
2022/11/12 14:18:53;;;;;;;35.53;17.98;;;;;;;16.42;50.60;101326.44;7727648;32;40161;-93
2022/11/12 14:23:18;;;;;;;23.67;12.68;;;;;;;16.14;51.09;101320.34;7738117;32;40539;-90
2022/11/12 14:27:40;;;;;;;20.50;12.35;;;;;;;16.05;51.92;101316.44;7737876;32;38939;-88
2022/11/12 14:32:02;;;;;;;24.12;11.55;;;;;;;15.97;51.84;101317.00;7738860;32;37229;-88
2022/11/12 14:36:19;;;;;;;20.40;10.83;;;;;;;15.74;52.28;101315.50;7763832;32;40011;-91
2022/11/12 14:40:44;;;;;;;26.02;12.37;;;;;;;15.81;52.17;101312.53;7769527;32;39981;-84
2022/11/12 14:45:00;;;;;;;17.30;10.40;;;;;;;15.32;53.73;101313.69;7738881;32;38042;-89
2022/11/12 14:49:33;;;;;;;23.62;12.02;;;;;;;15.31;53.48;101312.81;7765781;32;37961;-86
2022/11/12 14:53:54;;;;;;;20.52;11.00;;;;;;;15.42;52.91;101310.12;7778943;32;39260;-88
2022/11/12 14:58:15;;;;;;;20.65;10.25;;;;;;;15.02;53.99;101310.47;7791769;32;39840;-88
2022/11/12 15:02:32;;;;;;;24.87;11.15;;;;;;;14.86;54.67;101316.13;7750988;32;37611;-89
2022/11/12 15:07:27;;;;;;;21.30;10.93;;;;;;;14.73;54.60;101309.16;7764163;32;38799;-88
2022/11/12 15:11:46;;;;;;;27.70;13.05;;;;;;;14.76;54.65;101314.13;7765550;32;38977;-92
2022/11/12 15:16:06;;;;;;;19.42;10.40;;;;;;;14.85;54.36;101320.78;7776912;32;40753;-91
2022/11/12 15:20:22;;;;;;;20.40;10.75;;;;;;;14.65;55.13;101319.53;7777220;32;37654;-90
2022/11/12 15:24:42;;;;;;;24.45;10.73;;;;;;;14.74;54.58;101319.88;7791065;32;37158;-91
2022/11/12 15:29:09;;;;;;;23.05;10.73;;;;;;;14.43;55.63;101327.78;7793926;32;40230;-93
2022/11/12 15:33:25;;;;;;;18.50;9.77;;;;;;;14.48;55.75;101329.78;7795014;32;41152;-91
2022/11/12 15:37:42;;;;;;;22.75;11.43;;;;;;;14.57;55.55;101330.97;7793107;32;37796;-88
2022/11/12 15:42:15;;;;;;;22.13;12.18;;;;;;;14.26;56.76;101333.41;7791506;32;37159;-91
2022/11/12 15:46:31;;;;;;;26.15;12.85;;;;;;;14.03;57.60;101333.72;7780628;32;39304;-89
2022/11/12 15:50:48;;;;;;;20.17;12.07;;;;;;;14.00;57.86;101336.97;7792696;32;39876;-93
2022/11/12 15:55:04;;;;;;;26.58;13.73;;;;;;;14.11;57.65;101344.22;7791891;32;38058;-93
2022/11/12 15:59:21;;;;;;;25.35;13.55;;;;;;;14.27;56.60;101340.53;7792856;32;37979;-92
2022/11/12 16:03:37;;;;;;;21.83;11.75;;;;;;;14.27;56.77;101339.72;7789907;32;39478;-90
2022/11/12 16:07:53;;;;;;;21.55;12.90;;;;;;;13.84;58.05;101345.00;7791830;32;39911;-90
2022/11/12 16:12:13;;;;;;;23.20;12.68;;;;;;;13.99;58.09;101341.63;7791038;32;37973;-92
2022/11/12 16:16:30;;;;;;;23.98;11.20;;;;;;;13.83;58.55;101359.81;7779600;32;36959;-92
2022/11/12 16:20:48;;;;;;;20.58;11.88;;;;;;;13.88;58.23;101354.41;7769746;32;39621;-89
2022/11/12 16:25:05;;;;;;;21.48;12.48;;;;;;;13.93;58.01;101341.81;7783382;32;39915;-91
2022/11/12 16:29:22;;;;;;;27.27;14.40;;;;;;;14.07;57.92;101351.28;7791435;32;37040;-89
2022/11/12 16:33:38;;;;;;;24.40;13.93;;;;;;;14.01;58.12;101346.84;7772479;32;37457;-91
2022/11/12 16:37:55;;;;;;;21.33;12.98;;;;;;;14.11;57.32;101352.47;7789081;32;39331;-90
2022/11/12 16:42:11;;;;;;;24.73;13.85;;;;;;;13.92;58.19;101362.09;7787779;32;40091;-87
2022/11/12 16:46:39;;;;;;;26.75;12.48;;;;;;;13.82;58.59;101355.41;7801085;32;38390;-83
2022/11/12 16:50:57;;;;;;;27.40;12.30;;;;;;;13.77;58.28;101358.09;7788443;32;38394;-88
2022/11/12 16:55:14;;;;;;;30.05;17.00;;;;;;;13.82;57.94;101358.16;7791691;32;39492;-90
2022/11/12 16:59:31;;;;;;;22.73;13.40;;;;;;;13.63;58.61;101359.56;7761864;32;39973;-92
2022/11/12 17:03:54;;;;;;;33.80;20.37;;;;;;;14.06;57.56;101358.69;7796620;32;38172;-89
2022/11/12 17:08:10;;;;;;;30.30;18.27;;;;;;;14.05;57.92;101356.22;7799023;32;38367;-91
2022/11/12 17:12:26;;;;;;;28.92;15.93;;;;;;;13.80;58.65;101354.00;7785114;32;39636;-86
2022/11/12 17:16:44;;;;;;;26.45;12.52;;;;;;;13.63;58.69;101351.34;7797113;32;41043;-91
2022/11/12 17:21:16;;;;;;;21.73;11.90;;;;;;;13.39;59.20;101351.56;7785695;32;37446;-90
2022/11/12 17:25:32;;;;;;;21.05;11.75;;;;;;;13.41;58.89;101354.84;7797036;32;36788;-92
2022/11/12 17:29:49;;;;;;;22.58;13.25;;;;;;;13.16;59.44;101360.78;7804492;32;39371;-88
2022/11/12 17:34:05;;;;;;;28.30;13.62;;;;;;;13.17;59.47;101356.94;7805117;32;40368;-91
2022/11/12 17:38:21;;;;;;;29.45;14.40;;;;;;;13.11;59.51;101347.00;7800618;32;38756;-89
2022/11/12 17:42:38;;;;;;;25.48;14.20;;;;;;;13.37;58.77;101345.50;7797537;32;37586;-89
2022/11/12 17:46:54;;;;;;;29.95;15.40;;;;;;;12.98;60.17;101353.66;7784358;32;39565;-92
2022/11/12 17:51:13;;;;;;;25.42;16.17;;;;;;;13.17;59.53;101353.38;7794351;32;40765;-92
2022/11/12 17:55:29;;;;;;;51.20;27.08;;;;;;;12.77;61.07;101357.97;7792919;32;38982;-90
2022/11/12 17:59:45;;;;;;;57.80;30.62;;;;;;;12.42;63.51;101356.28;7792759;32;38113;-92
2022/11/12 18:04:01;;;;;;;50.97;28.80;;;;;;;12.73;62.98;101363.09;7800772;32;40170;-92
2022/11/12 18:08:17;;;;;;;42.15;26.10;;;;;;;12.56;63.15;101363.09;7803219;32;40162;-88
2022/11/12 18:12:34;;;;;;;60.70;32.72;;;;;;;12.71;62.25;101365.28;7802163;32;39195;-91
2022/11/12 18:16:50;;;;;;;40.08;21.90;;;;;;;12.65;61.64;101366.25;7794529;32;37178;-88
2022/11/12 18:21:06;;;;;;;29.12;16.35;;;;;;;12.27;62.81;101373.22;7793449;32;39291;-89
2022/11/12 18:25:22;;;;;;;33.35;18.12;;;;;;;12.24;60.97;101370.97;7791149;32;40689;-89
2022/11/12 18:29:40;;;;;;;38.88;18.90;;;;;;;12.29;60.77;101362.03;7792455;32;38853;-90
2022/11/12 18:33:56;;;;;;;31.98;19.15;;;;;;;12.20;60.82;101375.28;7791873;32;37145;-90
2022/11/12 18:38:12;;;;;;;37.45;19.73;;;;;;;12.15;61.20;101372.44;7792505;32;38299;-89
2022/11/12 18:42:29;;;;;;;35.28;19.77;;;;;;;12.27;61.09;101378.69;7792270;32;40164;-90
2022/11/12 18:46:45;;;;;;;36.50;19.52;;;;;;;12.28;61.14;101383.09;7795148;32;38031;-89
2022/11/12 18:51:06;;;;;;;33.03;18.58;;;;;;;12.28;60.91;101383.09;7795074;32;37142;-90
2022/11/12 18:55:23;;;;;;;33.70;20.17;;;;;;;11.97;61.75;101384.38;7793972;32;40310;-90
2022/11/12 18:59:39;;;;;;;39.80;21.45;;;;;;;11.51;63.27;101389.66;7778618;32;39618;-91
2022/11/12 19:03:55;;;;;;;40.63;21.37;;;;;;;11.82;62.78;101391.16;7779143;32;38098;-87
2022/11/12 19:08:12;;;;;;;36.13;21.20;;;;;;;11.69;64.04;101385.94;7780100;32;37447;-87
2022/11/12 19:12:28;;;;;;;36.40;21.33;;;;;;;11.67;63.85;101390.81;7785005;32;39598;-89
2022/11/12 19:16:45;;;;;;;35.35;20.75;;;;;;;11.61;63.87;101389.91;7770034;32;39157;-90
2022/11/12 19:21:07;;;;;;;38.58;22.02;;;;;;;11.64;63.16;101397.62;7765051;32;37912;-91
2022/11/12 19:25:23;;;;;;;38.42;22.25;;;;;;;11.78;63.12;101397.34;7788860;32;38310;-89
2022/11/12 19:29:39;;;;;;;38.70;21.98;;;;;;;11.76;62.79;101394.03;7795590;32;39048;-88
2022/11/12 19:33:56;;;;;;;33.65;19.37;;;;;;;11.56;63.32;101397.97;7791528;32;40618;-89
2022/11/12 19:38:12;;;;;;;32.58;19.23;;;;;;;11.69;62.24;101401.53;7791074;32;38771;-87
2022/11/12 19:42:41;;;;;;;36.13;19.67;;;;;;;11.66;61.66;101408.31;7792261;32;37145;-87
2022/11/12 19:46:58;;;;;;;29.17;18.85;;;;;;;11.68;61.63;101410.81;7801727;32;38337;-89
2022/11/12 19:51:15;;;;;;;33.75;19.20;;;;;;;11.53;61.66;101419.47;7768307;32;40131;-90
2022/11/12 19:55:31;;;;;;;29.17;18.40;;;;;;;11.54;61.50;101412.94;7791256;32;38712;-90
2022/11/12 19:59:54;;;;;;;32.13;18.67;;;;;;;11.39;61.81;101425.16;7778222;32;37187;-91